Time;durP1;ratioP1;P1;durP2;ratioP2;P2;SDS_P1;SDS_P2;PMS_P1;PMS_P2;Temp;Humidity;BMP_temperature;BMP_pressure;BME280_temperature;BME280_humidity;BME280_pressure;Samples;Min_cycle;Max_cycle;Signal;HPM_P1;HPM_P2
2022/11/23 00:02:11;;;;;;;10.77;5.40;;;;;;;6.77;100.00;97674.28;5091145;28;20195;-82
2022/11/23 00:04:39;;;;;;;10.33;5.27;;;;;;;6.72;100.00;97666.72;5074421;28;20672;-80
2022/11/23 00:07:12;;;;;;;14.63;6.03;;;;;;;6.77;100.00;97663.75;5097003;28;20673;-81
2022/11/23 00:09:43;;;;;;;13.07;5.60;;;;;;;6.77;100.00;97667.22;5095989;28;20196;-82
2022/11/23 00:12:12;;;;;;;11.57;5.00;;;;;;;6.79;100.00;97654.78;5096779;28;20243;-81
2022/11/23 00:14:41;;;;;;;15.83;6.00;;;;;;;6.83;100.00;97665.94;5096983;28;20259;-81
2022/11/23 00:17:09;;;;;;;14.33;6.63;;;;;;;6.70;100.00;97665.97;5090327;28;20203;-81
2022/11/23 00:19:38;;;;;;;13.53;5.87;;;;;;;6.80;100.00;97653.00;5090903;28;20187;-81
2022/11/23 00:22:06;;;;;;;8.63;5.30;;;;;;;6.70;100.00;97652.84;5101875;28;20192;-80
2022/11/23 00:24:41;;;;;;;14.30;5.90;;;;;;;6.75;100.00;97657.75;5097093;28;20198;-81
2022/11/23 00:27:09;;;;;;;11.17;5.40;;;;;;;6.75;100.00;97660.38;5009240;28;20193;-81
2022/11/23 00:29:38;;;;;;;11.47;5.63;;;;;;;6.60;100.00;97655.28;5011023;28;20214;-81
2022/11/23 00:32:06;;;;;;;7.13;4.80;;;;;;;6.64;100.00;97649.78;5008412;28;20241;-80
2022/11/23 00:34:35;;;;;;;10.93;4.97;;;;;;;6.66;100.00;97653.16;5011121;28;20206;-81
2022/11/23 00:37:03;;;;;;;10.53;5.20;;;;;;;6.73;100.00;97651.75;5009458;28;20241;-80
2022/11/23 00:39:32;;;;;;;9.40;5.10;;;;;;;6.64;100.00;97645.38;5014252;28;20191;-80
2022/11/23 00:42:02;;;;;;;13.73;5.10;;;;;;;6.55;100.00;97636.34;4970125;28;20643;-80
2022/11/23 00:44:31;;;;;;;14.20;5.30;;;;;;;6.63;100.00;97637.59;4990299;28;20185;-81
2022/11/23 00:46:59;;;;;;;15.30;5.70;;;;;;;6.72;100.00;97643.03;5068504;28;20192;-80
2022/11/23 00:49:28;;;;;;;11.63;4.77;;;;;;;6.70;100.00;97644.94;5066219;28;20655;-81
2022/11/23 00:51:57;;;;;;;12.63;4.97;;;;;;;6.58;100.00;97635.31;5068308;28;20197;-80
2022/11/23 00:54:25;;;;;;;13.97;4.93;;;;;;;6.65;100.00;97635.69;5029406;28;20194;-80
2022/11/23 00:56:54;;;;;;;13.80;4.77;;;;;;;6.73;100.00;97634.19;5028402;28;20194;-80
2022/11/23 00:59:24;;;;;;;10.57;4.67;;;;;;;6.62;100.00;97635.91;5035871;28;20200;-81
2022/11/23 01:01:52;;;;;;;7.10;4.50;;;;;;;6.70;100.00;97638.84;5003624;28;20193;-80
2022/11/23 01:04:20;;;;;;;13.03;4.87;;;;;;;6.44;100.00;97636.28;5049518;28;20192;-80
2022/11/23 01:06:49;;;;;;;11.50;4.40;;;;;;;6.48;100.00;97643.03;5047462;28;20668;-81
2022/11/23 01:09:23;;;;;;;8.43;3.97;;;;;;;6.51;100.00;97645.44;5049968;28;20281;-80
2022/11/23 01:11:53;;;;;;;10.87;4.17;;;;;;;6.52;100.00;97657.63;5061275;28;20268;-81
2022/11/23 01:14:22;;;;;;;8.20;3.87;;;;;;;6.48;100.00;97650.91;5060291;28;20187;-80
2022/11/23 01:16:52;;;;;;;11.97;3.93;;;;;;;6.44;100.00;97654.69;5094448;28;20204;-80
2022/11/23 01:19:22;;;;;;;12.83;4.13;;;;;;;6.50;100.00;97650.81;5089982;28;20651;-80
2022/11/23 01:21:50;;;;;;;9.03;3.90;;;;;;;6.53;100.00;97663.72;5092343;28;20249;-81
2022/11/23 01:24:20;;;;;;;12.80;4.27;;;;;;;6.69;100.00;97664.31;5097212;27;20188;-81
2022/11/23 01:26:52;;;;;;;12.73;4.03;;;;;;;6.66;100.00;97658.41;5095419;28;20192;-81
2022/11/23 01:29:21;;;;;;;10.73;4.00;;;;;;;6.53;100.00;97659.31;5057162;28;20645;-80
2022/11/23 01:31:50;;;;;;;9.57;3.83;;;;;;;6.56;100.00;97663.50;5091385;28;20292;-81
2022/11/23 01:34:20;;;;;;;9.03;3.57;;;;;;;6.45;100.00;97672.16;5094847;28;20214;-80
2022/11/23 01:36:50;;;;;;;8.67;3.27;;;;;;;6.50;100.00;97663.94;5096923;27;20195;-80
2022/11/23 01:39:18;;;;;;;11.33;3.73;;;;;;;6.49;100.00;97659.66;5089094;28;20195;-81
2022/11/23 01:41:47;;;;;;;8.13;3.90;;;;;;;6.47;100.00;97662.38;5094773;28;20204;-81
2022/11/23 01:44:35;;;;;;;8.27;3.40;;;;;;;6.52;100.00;97662.88;5095152;28;20209;-81
2022/11/23 01:47:05;;;;;;;7.57;3.47;;;;;;;6.55;100.00;97664.44;5093789;28;20211;-81
2022/11/23 01:49:39;;;;;;;9.27;3.73;;;;;;;6.58;100.00;97657.19;5092636;28;20199;-81
2022/11/23 01:52:11;;;;;;;8.87;3.60;;;;;;;6.51;100.00;97668.25;5095119;28;20245;-81
2022/11/23 01:54:44;;;;;;;9.13;3.50;;;;;;;6.47;100.00;97665.03;5094708;28;20192;-80
2022/11/23 01:57:20;;;;;;;12.13;3.70;;;;;;;6.41;100.00;97664.59;5052147;28;20212;-81
2022/11/23 01:59:51;;;;;;;12.07;3.83;;;;;;;6.46;100.00;97673.81;5049832;28;20662;-80
2022/11/23 02:02:19;;;;;;;10.07;3.63;;;;;;;6.44;100.00;97669.63;5051231;28;20190;-80
2022/11/23 02:04:57;;;;;;;8.83;3.50;;;;;;;6.40;100.00;97674.28;5049205;28;20199;-80
2022/11/23 02:07:26;;;;;;;9.83;3.80;;;;;;;6.51;100.00;97676.16;5052268;28;20196;-80
2022/11/23 02:09:55;;;;;;;10.83;3.43;;;;;;;6.48;100.00;97676.38;5049776;28;20291;-80
2022/11/23 02:12:23;;;;;;;10.00;3.97;;;;;;;6.31;100.00;97669.69;5047272;28;20219;-80
2022/11/23 02:14:54;;;;;;;14.40;3.87;;;;;;;6.35;100.00;97672.91;5051716;28;20251;-81
2022/11/23 02:17:22;;;;;;;9.90;3.47;;;;;;;6.48;100.00;97674.59;5050594;28;20224;-80
2022/11/23 02:20:03;;;;;;;6.80;3.23;;;;;;;6.44;100.00;97674.91;5047951;28;20644;-80
2022/11/23 02:22:40;;;;;;;11.40;3.30;;;;;;;6.52;100.00;97683.09;5079679;28;20218;-80
2022/11/23 02:25:18;;;;;;;12.13;4.07;;;;;;;6.47;100.00;97677.31;5088345;28;20657;-80
2022/11/23 02:27:48;;;;;;;10.13;3.80;;;;;;;6.62;100.00;97678.00;5094210;28;20191;-80
2022/11/23 02:30:16;;;;;;;9.73;4.00;;;;;;;6.51;100.00;97673.53;5091906;28;20195;-80
2022/11/23 02:32:45;;;;;;;10.97;3.63;;;;;;;6.47;100.00;97679.97;5088503;28;20223;-80
2022/11/23 02:35:13;;;;;;;12.07;3.47;;;;;;;6.55;100.00;97682.84;5094187;28;20188;-81
2022/11/23 02:37:44;;;;;;;10.47;3.50;;;;;;;6.58;100.00;97680.88;5092088;28;20249;-81
2022/11/23 02:40:25;;;;;;;10.03;3.50;;;;;;;6.64;100.00;97679.56;5012046;28;20205;-80
2022/11/23 02:42:55;;;;;;;8.73;3.13;;;;;;;6.40;100.00;97676.06;5010323;28;20225;-80
2022/11/23 02:45:34;;;;;;;8.20;3.40;;;;;;;6.42;100.00;97669.75;5012227;28;20198;-80
2022/11/23 02:48:03;;;;;;;11.53;3.57;;;;;;;6.51;100.00;97670.88;5010904;28;20194;-80
2022/11/23 02:50:33;;;;;;;8.70;3.20;;;;;;;6.61;100.00;97669.28;5009578;28;20195;-80
2022/11/23 02:53:01;;;;;;;12.63;3.53;;;;;;;6.66;100.00;97672.44;5012199;28;20221;-80
2022/11/23 02:55:29;;;;;;;13.70;3.97;;;;;;;6.58;100.00;97678.22;5006692;28;20202;-80
2022/11/23 02:58:03;;;;;;;11.57;4.27;;;;;;;6.58;100.00;97665.09;5037504;28;20225;-81
2022/11/23 03:00:34;;;;;;;10.90;3.90;;;;;;;6.49;100.00;97676.25;5093526;28;20195;-80
2022/11/23 03:03:05;;;;;;;9.40;3.60;;;;;;;6.54;100.00;97660.97;5091715;28;20190;-80
2022/11/23 03:05:33;;;;;;;9.23;3.57;;;;;;;6.48;100.00;97666.69;5091418;28;20188;-80
2022/11/23 03:08:02;;;;;;;10.83;3.80;;;;;;;6.46;100.00;97665.94;5090409;28;20253;-81
2022/11/23 03:10:30;;;;;;;6.40;3.63;;;;;;;6.54;100.00;97660.97;5092087;28;20226;-81
2022/11/23 03:13:00;;;;;;;9.53;4.00;;;;;;;6.48;100.00;97665.84;5092328;28;20202;-80
2022/11/23 03:15:29;;;;;;;10.30;3.67;;;;;;;6.35;100.00;97668.50;5093607;28;20192;-80
2022/11/23 03:17:57;;;;;;;13.07;4.60;;;;;;;6.41;100.00;97672.50;5090141;28;20200;-81
2022/11/23 03:20:26;;;;;;;11.70;4.20;;;;;;;6.44;100.00;97678.38;5092268;28;20249;-80
2022/11/23 03:22:55;;;;;;;16.23;3.83;;;;;;;6.47;100.00;97680.81;5091343;28;20195;-80
2022/11/23 03:25:24;;;;;;;11.53;4.40;;;;;;;6.38;100.00;97678.81;5091099;28;20257;-81
2022/11/23 03:27:52;;;;;;;13.40;3.90;;;;;;;6.50;100.00;97677.94;5093148;28;20203;-81
2022/11/23 03:30:22;;;;;;;9.60;4.07;;;;;;;6.47;100.00;97682.59;5091008;28;20203;-81
2022/11/23 03:32:51;;;;;;;11.03;4.00;;;;;;;6.41;100.00;97673.34;5091955;28;20191;-81
2022/11/23 03:35:20;;;;;;;13.53;4.00;;;;;;;6.33;100.00;97678.28;5091037;28;20287;-80
2022/11/23 03:37:48;;;;;;;12.13;3.93;;;;;;;6.39;100.00;97684.91;5093399;28;20195;-81
2022/11/23 03:40:16;;;;;;;8.47;4.37;;;;;;;6.38;100.00;97685.88;5086840;28;20199;-81
2022/11/23 03:42:45;;;;;;;9.13;4.20;;;;;;;6.38;100.00;97681.44;5093356;28;20651;-81
2022/11/23 03:45:13;;;;;;;8.37;4.27;;;;;;;6.38;100.00;97685.88;5091061;28;20244;-80
2022/11/23 03:47:46;;;;;;;13.77;4.70;;;;;;;6.32;100.00;97687.13;5089194;28;20195;-80
2022/11/23 03:50:15;;;;;;;13.37;4.63;;;;;;;6.31;100.00;97690.72;5030299;28;20212;-81
2022/11/23 03:52:45;;;;;;;7.27;3.93;;;;;;;6.25;100.00;97697.22;5027753;28;20260;-81
2022/11/23 03:55:16;;;;;;;11.70;4.20;;;;;;;6.32;100.00;97697.66;5037858;28;20225;-80
2022/11/23 03:57:44;;;;;;;14.33;5.73;;;;;;;6.38;100.00;97689.34;5028361;28;20230;-81
2022/11/23 04:00:13;;;;;;;11.43;5.37;;;;;;;6.43;100.00;97689.84;5030527;28;20209;-80
2022/11/23 04:02:45;;;;;;;13.40;5.10;;;;;;;6.37;100.00;97684.16;5029411;28;20197;-81
2022/11/23 04:05:13;;;;;;;9.93;4.73;;;;;;;6.47;100.00;97698.38;5028555;28;20225;-81
2022/11/23 04:07:43;;;;;;;10.33;4.77;;;;;;;6.39;100.00;97687.53;5043093;28;20200;-81
2022/11/23 04:10:11;;;;;;;15.00;5.00;;;;;;;6.46;100.00;97691.41;5084730;28;20204;-81
2022/11/23 04:12:40;;;;;;;12.60;4.80;;;;;;;6.51;100.00;97702.44;5091921;28;20190;-81
2022/11/23 04:15:09;;;;;;;10.30;4.50;;;;;;;6.45;100.00;97703.72;5099160;27;20223;-81
2022/11/23 04:17:38;;;;;;;13.67;5.70;;;;;;;6.47;100.00;97708.88;5093814;28;20253;-81
2022/11/23 04:20:11;;;;;;;14.03;5.63;;;;;;;6.47;100.00;97703.63;5094984;28;20188;-81
2022/11/23 04:22:39;;;;;;;9.90;5.47;;;;;;;6.45;100.00;97702.88;5094758;28;20192;-81
2022/11/23 04:25:10;;;;;;;14.60;5.60;;;;;;;6.39;100.00;97696.28;5096246;28;20218;-81
2022/11/23 04:27:38;;;;;;;15.53;5.60;;;;;;;6.46;100.00;97696.66;5100373;28;20208;-81
2022/11/23 04:30:08;;;;;;;10.77;5.20;;;;;;;6.44;100.00;97690.66;5101428;28;20184;-80
2022/11/23 04:32:37;;;;;;;13.23;5.77;;;;;;;6.40;100.00;97694.47;5092428;28;20231;-80
2022/11/23 04:35:09;;;;;;;10.23;4.40;;;;;;;6.39;100.00;97693.66;5049068;28;20213;-80
2022/11/23 04:37:37;;;;;;;10.83;4.83;;;;;;;6.41;100.00;97704.88;5025243;28;20232;-80
2022/11/23 04:40:07;;;;;;;10.90;4.83;;;;;;;6.30;100.00;97697.75;5055142;28;20189;-81
2022/11/23 04:42:37;;;;;;;10.90;4.37;;;;;;;6.43;100.00;97699.50;5054986;28;20197;-80
2022/11/23 04:45:06;;;;;;;13.70;4.87;;;;;;;6.37;100.00;97685.03;5033724;28;20194;-80
2022/11/23 04:47:34;;;;;;;10.40;4.63;;;;;;;6.25;100.00;97688.50;5032772;28;20193;-80
2022/11/23 04:50:05;;;;;;;14.17;4.83;;;;;;;6.28;100.00;97696.19;5028704;28;20196;-80
2022/11/23 04:52:35;;;;;;;10.10;4.20;;;;;;;6.33;100.00;97696.69;5031565;28;20193;-81
2022/11/23 04:55:04;;;;;;;14.53;4.80;;;;;;;6.34;100.00;97698.38;5053670;28;20217;-81
2022/11/23 04:57:32;;;;;;;8.13;4.10;;;;;;;6.31;100.00;97703.84;5033863;28;20193;-81
2022/11/23 05:00:00;;;;;;;14.67;4.23;;;;;;;6.32;100.00;97703.75;5049795;28;20224;-81
2022/11/23 05:02:28;;;;;;;13.03;4.83;;;;;;;6.27;100.00;97705.00;5026571;28;20234;-81
2022/11/23 05:04:56;;;;;;;12.37;4.30;;;;;;;6.25;100.00;97704.28;5090522;28;20207;-81
2022/11/23 05:07:25;;;;;;;9.93;4.10;;;;;;;6.29;100.00;97701.34;5089694;28;20195;-81
2022/11/23 05:09:56;;;;;;;9.73;4.10;;;;;;;6.36;100.00;97709.63;5060831;28;20191;-80
2022/11/23 05:12:25;;;;;;;14.47;4.60;;;;;;;6.35;100.00;97697.41;5091087;28;20192;-80
2022/11/23 05:14:53;;;;;;;12.17;4.60;;;;;;;6.27;100.00;97700.63;5092750;28;20214;-80
2022/11/23 05:17:21;;;;;;;12.30;4.50;;;;;;;6.40;100.00;97705.00;5012041;28;20241;-81
2022/11/23 05:19:50;;;;;;;12.80;4.67;;;;;;;6.42;100.00;97709.19;4964774;28;20218;-81
2022/11/23 05:22:19;;;;;;;12.07;4.47;;;;;;;6.31;100.00;97712.56;5012018;28;20313;-81
2022/11/23 05:24:47;;;;;;;14.60;4.83;;;;;;;6.35;100.00;97713.19;5006468;28;20203;-80
2022/11/23 05:27:17;;;;;;;11.83;4.67;;;;;;;6.45;100.00;97708.97;4994465;28;20310;-81
2022/11/23 05:29:45;;;;;;;11.20;4.30;;;;;;;6.46;100.00;97715.06;5010558;28;20258;-81
2022/11/23 05:32:14;;;;;;;13.67;4.70;;;;;;;6.47;100.00;97720.25;5006669;28;20272;-81
2022/11/23 05:34:42;;;;;;;10.73;4.20;;;;;;;6.49;100.00;97712.25;5025006;28;20285;-81
2022/11/23 05:37:11;;;;;;;15.97;4.73;;;;;;;6.45;100.00;97718.66;5087269;28;20211;-81
2022/11/23 05:39:40;;;;;;;13.60;4.77;;;;;;;6.37;100.00;97715.72;5057266;28;20199;-81
2022/11/23 05:42:11;;;;;;;19.20;4.67;;;;;;;6.43;100.00;97712.66;5095063;28;20194;-81
2022/11/23 05:44:41;;;;;;;12.03;4.50;;;;;;;6.44;100.00;97716.97;5052524;28;20193;-81
2022/11/23 05:47:11;;;;;;;14.07;5.33;;;;;;;6.23;100.00;97716.69;5051195;28;20667;-81
2022/11/23 05:49:39;;;;;;;8.40;4.47;;;;;;;6.49;100.00;97720.13;5051767;28;20197;-81
2022/11/23 05:52:07;;;;;;;12.57;4.80;;;;;;;6.42;100.00;97721.50;5052782;28;20643;-81
2022/11/23 05:54:38;;;;;;;10.33;4.73;;;;;;;6.48;100.00;97723.72;5048953;28;20185;-81
2022/11/23 05:57:06;;;;;;;15.90;5.20;;;;;;;6.44;100.00;97724.84;5044375;28;20197;-81
2022/11/23 05:59:35;;;;;;;15.80;5.33;;;;;;;6.53;100.00;97737.38;5052719;28;20694;-81
2022/11/23 06:02:05;;;;;;;13.63;5.43;;;;;;;6.53;100.00;97740.84;5051488;28;20189;-81
2022/11/23 06:04:33;;;;;;;14.67;5.23;;;;;;;6.47;100.00;97722.03;5046676;28;20193;-81
2022/11/23 06:07:02;;;;;;;12.33;5.17;;;;;;;6.51;100.00;97736.63;5046665;28;20193;-81
2022/11/23 06:09:31;;;;;;;14.87;5.10;;;;;;;6.58;100.00;97737.91;5048369;28;20204;-81
2022/11/23 06:11:59;;;;;;;11.90;5.13;;;;;;;6.55;100.00;97732.84;5042913;28;20201;-81
2022/11/23 06:14:27;;;;;;;14.90;5.80;;;;;;;6.50;100.00;97732.34;5052189;28;20193;-81
2022/11/23 06:16:56;;;;;;;13.83;5.50;;;;;;;6.53;100.00;97730.31;5093426;28;20277;-81
2022/11/23 06:19:28;;;;;;;15.47;6.40;;;;;;;6.60;100.00;97738.63;5094308;28;20188;-81
2022/11/23 06:21:58;;;;;;;11.87;5.97;;;;;;;6.66;100.00;97747.84;5092681;28;20205;-81
2022/11/23 06:24:26;;;;;;;15.80;7.10;;;;;;;6.60;100.00;97736.00;5047595;28;20204;-81
2022/11/23 06:26:54;;;;;;;18.37;7.17;;;;;;;6.61;100.00;97740.28;5048854;28;20193;-81
2022/11/23 06:29:23;;;;;;;16.63;7.10;;;;;;;6.62;100.00;97733.25;5001437;28;20193;-82
2022/11/23 06:31:51;;;;;;;12.57;7.10;;;;;;;6.66;100.00;97737.31;5029866;28;20251;-81
2022/11/23 06:34:20;;;;;;;15.90;7.43;;;;;;;6.56;100.00;97724.84;5021494;28;20255;-81
2022/11/23 06:36:50;;;;;;;16.63;7.10;;;;;;;6.59;100.00;97716.75;5051934;28;20372;-81
2022/11/23 06:39:18;;;;;;;14.63;6.30;;;;;;;6.62;100.00;97730.63;5048176;28;20227;-80
2022/11/23 06:41:47;;;;;;;13.13;5.50;;;;;;;6.67;100.00;97724.09;5043447;28;20208;-81
2022/11/23 06:44:15;;;;;;;17.53;6.10;;;;;;;6.53;100.00;97734.72;5051467;28;20193;-81
2022/11/23 06:46:44;;;;;;;11.37;5.47;;;;;;;6.60;100.00;97736.81;5045295;28;20220;-81
2022/11/23 06:49:12;;;;;;;16.07;5.53;;;;;;;6.56;100.00;97732.75;5070458;28;20715;-81
2022/11/23 06:51:41;;;;;;;20.40;5.57;;;;;;;6.61;100.00;97740.28;5092551;28;20195;-81
2022/11/23 06:54:10;;;;;;;10.50;4.50;;;;;;;6.54;100.00;97746.94;5093689;28;20227;-81
2022/11/23 06:56:39;;;;;;;9.20;4.87;;;;;;;6.56;100.00;97748.53;5093353;28;20219;-81
2022/11/23 06:59:07;;;;;;;10.20;4.87;;;;;;;6.51;100.00;97748.00;5091028;28;20203;-81
2022/11/23 07:01:35;;;;;;;14.03;5.20;;;;;;;6.57;100.00;97744.94;5091254;28;20237;-81
2022/11/23 07:04:04;;;;;;;12.27;5.20;;;;;;;6.61;100.00;97753.44;5089569;28;20204;-81
2022/11/23 07:06:33;;;;;;;14.47;5.10;;;;;;;6.54;100.00;97750.41;5093564;28;20273;-81
2022/11/23 07:09:01;;;;;;;13.37;5.57;;;;;;;6.55;100.00;97745.97;5088765;28;20191;-82
2022/11/23 07:11:31;;;;;;;13.00;5.37;;;;;;;6.55;100.00;97761.75;5093594;28;20196;-81
2022/11/23 07:14:00;;;;;;;15.03;5.50;;;;;;;6.49;100.00;97757.78;5092041;28;20217;-81
2022/11/23 07:16:28;;;;;;;12.03;5.00;;;;;;;6.53;100.00;97761.03;5093308;28;20273;-81
2022/11/23 07:18:56;;;;;;;11.87;5.30;;;;;;;6.47;100.00;97759.69;5094793;28;20211;-82
2022/11/23 07:21:24;;;;;;;14.53;5.20;;;;;;;6.42;100.00;97748.63;5092448;28;20203;-82
2022/11/23 07:23:53;;;;;;;14.97;5.33;;;;;;;6.52;100.00;97749.69;5088018;28;20225;-82
2022/11/23 07:26:21;;;;;;;10.53;5.53;;;;;;;6.60;100.00;97749.13;5095023;28;20191;-81
2022/11/23 07:28:51;;;;;;;11.10;5.87;;;;;;;6.63;100.00;97743.66;5093176;28;20200;-81
2022/11/23 07:31:20;;;;;;;14.13;5.90;;;;;;;6.47;100.00;97758.84;5055886;28;20223;-81
2022/11/23 07:33:49;;;;;;;14.27;5.80;;;;;;;6.48;100.00;97756.13;5053081;28;20643;-82
2022/11/23 07:36:18;;;;;;;8.87;5.20;;;;;;;6.56;100.00;97768.69;5089302;28;20253;-82
2022/11/23 07:38:47;;;;;;;13.33;5.57;;;;;;;6.68;100.00;97761.75;5093701;28;20195;-81
2022/11/23 07:41:18;;;;;;;10.97;5.87;;;;;;;6.58;100.00;97762.41;5087014;28;20245;-81
2022/11/23 07:43:46;;;;;;;11.50;5.80;;;;;;;6.59;100.00;97764.09;5089938;28;20237;-80
2022/11/23 07:46:16;;;;;;;14.27;6.30;;;;;;;6.67;100.00;97768.81;5085989;28;20242;-81
2022/11/23 07:48:45;;;;;;;13.53;5.27;;;;;;;6.66;100.00;97766.25;5097079;28;20196;-81
2022/11/23 07:51:13;;;;;;;10.83;5.60;;;;;;;6.59;100.00;97769.34;5097178;28;20195;-81
2022/11/23 07:53:42;;;;;;;14.87;5.40;;;;;;;6.61;100.00;97769.22;5094107;28;20229;-81
2022/11/23 07:56:12;;;;;;;11.10;5.47;;;;;;;6.69;100.00;97771.34;5092563;28;20681;-81
2022/11/23 07:58:40;;;;;;;11.57;5.50;;;;;;;6.73;100.00;97772.78;5092832;28;20207;-81
2022/11/23 08:01:09;;;;;;;19.00;5.63;;;;;;;6.66;100.00;97763.63;5097859;28;20192;-81
2022/11/23 08:03:43;;;;;;;18.47;5.70;;;;;;;6.66;100.00;97768.91;5095752;28;20642;-80
2022/11/23 08:06:16;;;;;;;13.87;5.17;;;;;;;6.68;100.00;97769.66;5013885;28;20194;-80
2022/11/23 08:08:45;;;;;;;15.33;5.27;;;;;;;6.71;100.00;97770.25;5012543;28;20202;-81
2022/11/23 08:11:17;;;;;;;11.83;5.20;;;;;;;6.68;100.00;97767.03;5009949;28;20217;-80
2022/11/23 08:13:45;;;;;;;11.63;4.77;;;;;;;6.74;100.00;97777.94;5014605;28;20349;-80
2022/11/23 08:16:14;;;;;;;13.67;5.13;;;;;;;6.77;100.00;97763.75;4996109;28;20302;-81
2022/11/23 08:18:44;;;;;;;13.57;5.10;;;;;;;6.84;100.00;97772.84;5012053;28;20240;-81
2022/11/23 08:21:15;;;;;;;14.97;5.30;;;;;;;6.80;100.00;97777.50;5013816;28;20202;-80
2022/11/23 08:23:43;;;;;;;9.37;4.47;;;;;;;6.83;100.00;97779.06;4975371;28;20263;-80
2022/11/23 08:26:11;;;;;;;13.37;5.00;;;;;;;6.84;100.00;97786.84;4968736;28;20226;-80
2022/11/23 08:28:41;;;;;;;9.97;4.30;;;;;;;6.82;100.00;97772.13;4973831;28;20296;-80
2022/11/23 08:31:13;;;;;;;10.07;4.70;;;;;;;6.87;100.00;97783.19;5011911;28;20225;-81
2022/11/23 08:33:41;;;;;;;10.30;4.53;;;;;;;6.98;100.00;97782.41;5033060;28;20245;-80
2022/11/23 08:36:12;;;;;;;10.00;4.83;;;;;;;6.89;100.00;97787.38;5029042;28;20206;-80
2022/11/23 08:38:41;;;;;;;10.93;4.90;;;;;;;6.96;100.00;97774.63;4973599;28;20312;-80
2022/11/23 08:41:09;;;;;;;14.43;5.23;;;;;;;6.94;100.00;97781.78;4975167;28;20243;-80
2022/11/23 08:43:37;;;;;;;12.87;5.10;;;;;;;6.96;100.00;97781.69;4975803;28;20268;-80
2022/11/23 08:46:07;;;;;;;14.07;5.03;;;;;;;6.94;100.00;97787.03;4978024;28;20263;-80
2022/11/23 08:48:38;;;;;;;9.10;4.30;;;;;;;7.01;100.00;97785.66;5009220;28;20197;-80
2022/11/23 08:51:07;;;;;;;12.07;5.10;;;;;;;6.94;100.00;97787.03;5000359;28;20198;-80
2022/11/23 08:53:37;;;;;;;9.53;4.73;;;;;;;7.03;100.00;97778.50;5032758;28;20194;-80
2022/11/23 08:56:07;;;;;;;16.30;6.23;;;;;;;7.04;100.00;97782.78;5033720;28;20197;-80
2022/11/23 08:58:36;;;;;;;13.07;7.43;;;;;;;7.12;100.00;97783.09;5030534;28;20221;-80
2022/11/23 09:01:08;;;;;;;15.73;5.70;;;;;;;7.09;100.00;97783.31;5033053;28;20244;-80
2022/11/23 09:03:37;;;;;;;14.63;5.33;;;;;;;7.11;100.00;97784.03;5068191;28;20191;-81
2022/11/23 09:06:06;;;;;;;15.73;6.00;;;;;;;7.20;100.00;97779.06;5094578;28;20203;-80
2022/11/23 09:08:37;;;;;;;12.50;5.97;;;;;;;7.22;100.00;97774.53;5093814;28;20651;-80
2022/11/23 09:11:07;;;;;;;11.93;5.47;;;;;;;7.30;100.00;97785.34;5095567;28;20204;-81
2022/11/23 09:13:37;;;;;;;14.40;6.97;;;;;;;7.30;100.00;97782.72;5094022;28;20200;-80
2022/11/23 09:16:07;;;;;;;14.23;6.93;;;;;;;7.34;100.00;97776.28;5095755;28;20188;-80
2022/11/23 09:18:37;;;;;;;14.73;7.43;;;;;;;7.50;100.00;97773.34;5094303;28;20251;-80
2022/11/23 09:21:06;;;;;;;14.57;7.23;;;;;;;7.47;100.00;97770.00;5092894;28;20196;-81
2022/11/23 09:23:35;;;;;;;17.63;7.83;;;;;;;7.55;100.00;97773.88;5095593;28;20249;-80
2022/11/23 09:26:06;;;;;;;10.53;6.90;;;;;;;7.70;100.00;97768.28;5097288;27;20188;-80
2022/11/23 09:28:35;;;;;;;12.67;7.17;;;;;;;7.86;100.00;97765.34;5096549;28;20713;-80
2022/11/23 09:31:11;;;;;;;14.10;7.30;;;;;;;7.88;100.00;97766.06;5095114;28;20226;-80
2022/11/23 09:33:39;;;;;;;14.53;8.03;;;;;;;7.96;100.00;97760.22;5089174;28;20184;-80
2022/11/23 09:36:08;;;;;;;14.80;7.37;;;;;;;8.06;100.00;97755.09;5090608;28;20658;-80
2022/11/23 09:38:36;;;;;;;12.23;6.90;;;;;;;8.16;100.00;97756.06;5091772;28;20269;-81
2022/11/23 09:41:51;;;;;;;15.57;6.53;;;;;;;8.27;100.00;97759.53;5095496;28;20249;-81
2022/11/23 09:44:31;;;;;;;10.67;6.83;;;;;;;8.34;100.00;97762.56;5094939;28;20196;-80
2022/11/23 09:47:14;;;;;;;11.77;6.10;;;;;;;8.42;100.00;97756.72;5086370;28;20206;-80
2022/11/23 09:49:54;;;;;;;13.77;6.00;;;;;;;8.63;100.00;97757.69;5094854;28;20192;-81
2022/11/23 09:52:25;;;;;;;16.00;6.63;;;;;;;8.63;100.00;97760.31;5050177;28;20651;-81
2022/11/23 09:54:59;;;;;;;13.77;5.83;;;;;;;8.32;100.00;97752.13;5047575;28;20682;-81
2022/11/23 09:57:34;;;;;;;12.40;5.50;;;;;;;8.34;100.00;97746.72;5049265;28;20251;-81
2022/11/23 10:00:06;;;;;;;11.30;5.03;;;;;;;8.45;100.00;97748.56;5049744;28;20197;-80
2022/11/23 10:02:40;;;;;;;11.87;4.90;;;;;;;8.59;100.00;97741.25;5050545;28;20239;-81
2022/11/23 10:05:15;;;;;;;12.50;5.57;;;;;;;8.64;100.00;97740.88;5050309;28;20204;-81
2022/11/23 10:07:56;;;;;;;10.70;4.60;;;;;;;8.60;100.00;97739.47;5027696;28;20231;-81
2022/11/23 10:10:37;;;;;;;9.97;4.93;;;;;;;8.76;100.00;97723.22;5047745;28;20199;-80
2022/11/23 10:13:22;;;;;;;13.10;3.93;;;;;;;9.01;100.00;97730.03;5070199;28;20184;-81
2022/11/23 10:16:09;;;;;;;12.33;3.83;;;;;;;9.17;100.00;97722.56;5069372;28;20216;-80
2022/11/23 10:18:47;;;;;;;9.27;3.57;;;;;;;9.24;100.00;97712.31;5030627;28;20214;-81
2022/11/23 10:21:28;;;;;;;11.23;3.67;;;;;;;9.20;100.00;97709.09;5030335;28;20193;-80
2022/11/23 10:24:05;;;;;;;9.90;4.03;;;;;;;8.95;100.00;97717.31;5026973;28;20263;-81
2022/11/23 10:26:38;;;;;;;12.43;3.47;;;;;;;8.82;100.00;97701.63;5012907;28;20200;-81
2022/11/23 10:29:14;;;;;;;17.07;3.87;;;;;;;8.60;100.00;97716.53;5069449;28;20269;-81
2022/11/23 10:31:47;;;;;;;13.57;3.57;;;;;;;8.45;100.00;97723.03;5066425;28;20215;-81
2022/11/23 10:34:31;;;;;;;11.90;3.87;;;;;;;8.58;100.00;97713.16;5071533;28;20207;-81
2022/11/23 10:37:00;;;;;;;14.83;3.67;;;;;;;8.70;100.00;97721.09;5082579;28;20215;-81
2022/11/23 10:39:30;;;;;;;9.43;3.60;;;;;;;8.74;100.00;97717.25;5092447;28;20194;-80
2022/11/23 10:42:03;;;;;;;11.43;3.40;;;;;;;8.84;100.00;97716.38;5095322;27;20198;-81
2022/11/23 10:44:37;;;;;;;11.17;3.80;;;;;;;8.74;100.00;97712.78;5094324;28;20219;-80
2022/11/23 10:47:06;;;;;;;8.70;3.13;;;;;;;8.75;100.00;97718.91;5094836;27;20232;-80
2022/11/23 10:49:36;;;;;;;9.70;3.23;;;;;;;8.80;100.00;97720.25;5093746;28;20225;-81
2022/11/23 10:52:06;;;;;;;8.53;3.23;;;;;;;8.99;100.00;97709.03;5093758;28;20199;-81
2022/11/23 10:54:39;;;;;;;11.13;3.07;;;;;;;9.01;100.00;97711.56;5093620;28;20230;-80
2022/11/23 10:57:22;;;;;;;7.93;2.67;;;;;;;8.96;100.00;97714.53;5090999;28;20199;-81
2022/11/23 11:00:01;;;;;;;12.20;3.50;;;;;;;9.23;100.00;97703.56;5091434;28;20184;-80
2022/11/23 11:02:39;;;;;;;10.70;3.80;;;;;;;9.21;100.00;97688.78;5089840;28;20184;-81
2022/11/23 11:05:24;;;;;;;8.20;4.27;;;;;;;8.77;100.00;97699.34;5093791;28;20195;-80
2022/11/23 11:08:17;;;;;;;9.37;3.17;;;;;;;8.91;100.00;97697.41;5093712;28;20214;-80
2022/11/23 11:10:49;;;;;;;8.23;2.97;;;;;;;8.75;100.00;97698.63;5011314;28;20264;-81
2022/11/23 11:13:26;;;;;;;13.00;3.07;;;;;;;9.34;100.00;97681.53;5010284;28;20206;-80
2022/11/23 11:15:59;;;;;;;9.73;3.17;;;;;;;9.25;100.00;97684.94;5009505;28;20665;-80
2022/11/23 11:18:33;;;;;;;9.00;2.93;;;;;;;9.21;100.00;97684.34;5010243;28;20214;-80
2022/11/23 11:21:04;;;;;;;10.23;3.17;;;;;;;8.96;100.00;97684.66;5007950;28;20244;-80
2022/11/23 11:23:34;;;;;;;12.37;3.17;;;;;;;8.77;100.00;97680.88;5010227;28;20202;-81
2022/11/23 11:26:11;;;;;;;11.40;2.93;;;;;;;8.88;100.00;97677.38;5007540;28;20195;-80
2022/11/23 11:28:43;;;;;;;9.00;2.83;;;;;;;8.70;100.00;97674.44;5006300;28;20199;-80
2022/11/23 11:31:37;;;;;;;8.47;2.73;;;;;;;8.99;100.00;97679.16;5007463;28;20228;-81
2022/11/23 11:34:16;;;;;;;9.47;2.90;;;;;;;9.24;100.00;97672.69;5011208;28;20206;-80
2022/11/23 11:36:53;;;;;;;10.17;2.80;;;;;;;9.03;100.00;97680.56;5006939;28;20198;-80
2022/11/23 11:39:29;;;;;;;10.13;3.00;;;;;;;9.06;100.00;97669.75;5007226;28;20226;-80
2022/11/23 11:42:03;;;;;;;8.23;2.97;;;;;;;9.12;100.00;97675.38;5051061;28;20184;-81
2022/11/23 11:44:37;;;;;;;8.57;2.40;;;;;;;9.07;100.00;97666.13;5092920;28;20199;-80